Current Weather

Phillips Aaf

Aberdeen Proving Grounds(Aberdeen), Maryland (KAPG)

Report from: Monday, July 22, 2024 5:57 AM EDT
Current time: Monday, July 22, 2024 6:32 AM EDT

Nearby weather – Weather history – Daily summaries
Weather forecast

Temperature24.2°C (75.6°F)
Dew point23.1°C (73.6°F)
Winds Calm
Visibility10 mi. (16.1 km)
Clouds Ceiling: Overcast 700 ft. (213 m)
Altimeter30.06 in.Hg (1018 mB)
Relative humidity94 %
Density altitude1,283 ft. (391 m)
Sea-level pressure101.8 kPa (1018 mB, 30.06 in.Hg)
Remarks System requires maintenance
Flight conditions Instrument Meteorological Conditions
Raw dataKAPG 220957Z 00000KT 10SM OVC007 24/23 A3006 RMK SLP181 T02420231 $
An error has occurred. This application may no longer respond until reloaded. Reload 🗙